Time;durP1;ratioP1;P1;durP2;ratioP2;P2;SDS_P1;SDS_P2;PMS_P1;PMS_P2;Temp;Humidity;BMP_temperature;BMP_pressure;BME280_temperature;BME280_humidity;BME280_pressure;Samples;Min_cycle;Max_cycle;Signal;HPM_P1;HPM_P2
2022/07/02 00:01:49;;;;;;;25.55;11.02;;;;;;;-144.47;71.93;53459.94;5052001;28;20040;-67
2022/07/02 00:04:19;;;;;;;28.08;10.85;;;;;;;-144.47;71.74;53453.97;5050056;28;20481;-67
2022/07/02 00:06:46;;;;;;;19.70;10.10;;;;;;;-144.47;71.52;53459.94;5046067;28;20031;-66
2022/07/02 00:09:13;;;;;;;25.10;11.48;;;;;;;-144.47;71.25;53499.66;5050246;28;20020;-68
2022/07/02 00:11:39;;;;;;;19.42;10.75;;;;;;;-144.47;71.21;53448.00;5048575;28;20067;-68
2022/07/02 00:14:05;;;;;;;20.00;10.43;;;;;;;-144.47;71.13;53412.25;5049573;28;20049;-68
2022/07/02 00:16:30;;;;;;;16.80;8.63;;;;;;;-144.47;70.93;53442.06;5041575;28;20138;-67
2022/07/02 00:18:57;;;;;;;22.85;9.30;;;;;;;-144.47;70.71;53416.22;5049651;28;20478;-66
2022/07/02 00:21:23;;;;;;;23.15;10.43;;;;;;;-144.47;70.78;53452.00;5049980;28;20036;-66
2022/07/02 00:23:48;;;;;;;16.42;9.10;;;;;;;-144.47;70.66;53471.84;5049941;28;20104;-68
2022/07/02 00:26:39;;;;;;;17.75;9.45;;;;;;;-144.47;70.63;53471.84;5049619;28;20047;-67
2022/07/02 00:29:19;;;;;;;17.45;9.02;;;;;;;-144.47;70.39;53463.91;5043802;28;20088;-69
2022/07/02 00:31:47;;;;;;;21.05;9.27;;;;;;;-144.47;70.58;53434.09;5049703;28;20109;-67
2022/07/02 00:34:13;;;;;;;16.08;8.40;;;;;;;-144.47;70.44;53436.09;5048629;28;20041;-67
2022/07/02 00:36:39;;;;;;;14.75;8.70;;;;;;;-144.47;70.17;53453.97;5048972;28;20096;-66
2022/07/02 00:39:04;;;;;;;21.58;8.57;;;;;;;-144.47;70.06;53422.19;5049239;28;20040;-68
2022/07/02 00:41:33;;;;;;;23.33;10.27;;;;;;;-144.47;70.01;53461.91;5049381;28;20111;-67
2022/07/02 00:43:59;;;;;;;17.25;8.38;;;;;;;-144.47;69.67;53426.16;5048238;28;20098;-65
2022/07/02 00:46:27;;;;;;;18.15;8.20;;;;;;;-144.47;69.59;53426.16;5039293;28;20025;-66
2022/07/02 00:48:53;;;;;;;14.68;8.15;;;;;;;-144.47;69.39;53444.03;5049257;28;20575;-67
2022/07/02 00:51:18;;;;;;;20.35;7.93;;;;;;;-144.47;69.59;53442.06;5047742;28;20579;-64
2022/07/02 00:53:44;;;;;;;19.67;8.65;;;;;;;-144.47;69.71;53434.09;5049078;28;20729;-66
2022/07/02 00:56:09;;;;;;;15.73;7.90;;;;;;;-144.47;69.67;53432.13;5049120;28;20044;-65
2022/07/02 00:58:34;;;;;;;15.50;8.25;;;;;;;-144.47;69.92;53481.78;5047798;28;20025;-64
2022/07/02 01:01:00;;;;;;;15.30;7.30;;;;;;;-144.47;70.17;53436.09;5048234;28;20048;-65
2022/07/02 01:03:26;;;;;;;16.00;7.72;;;;;;;-144.47;70.38;53420.22;5049013;28;20029;-65
2022/07/02 01:05:52;;;;;;;12.00;6.43;;;;;;;-144.47;70.56;53424.19;5048731;28;20024;-65
2022/07/02 01:11:07;;;;;;;13.98;7.35;;;;;;;-144.47;71.32;53442.06;5048142;28;20135;-66
2022/07/02 01:13:33;;;;;;;26.60;7.63;;;;;;;-144.47;71.56;53475.81;5048250;28;20597;-66
2022/07/02 01:16:00;;;;;;;16.05;6.68;;;;;;;-144.47;71.49;53475.81;5040879;28;20087;-65
2022/07/02 01:18:25;;;;;;;15.68;7.72;;;;;;;-144.47;71.91;53467.88;5047965;28;20506;-66
2022/07/02 01:20:50;;;;;;;17.27;6.88;;;;;;;-144.47;71.98;53436.09;5046048;28;20133;-65
2022/07/02 01:23:16;;;;;;;12.25;6.28;;;;;;;-144.47;72.18;53453.97;5048371;28;20025;-68
2022/07/02 01:25:48;;;;;;;11.65;5.93;;;;;;;-144.47;72.37;53420.22;5047784;28;20067;-65
2022/07/02 01:28:14;;;;;;;11.10;6.75;;;;;;;-144.47;72.69;53440.06;5048132;28;20033;-67
2022/07/02 01:30:39;;;;;;;17.67;6.50;;;;;;;-144.47;73.00;53469.88;5048455;28;20048;-66
2022/07/02 01:33:05;;;;;;;10.95;6.43;;;;;;;-144.47;72.83;53475.81;5048313;28;20037;-65
2022/07/02 01:35:30;;;;;;;16.67;7.20;;;;;;;-144.47;72.65;53461.91;5048657;28;20033;-66
2022/07/02 01:37:56;;;;;;;21.67;7.03;;;;;;;-144.47;72.90;53412.25;5046792;28;20035;-66
2022/07/02 01:40:21;;;;;;;16.02;6.30;;;;;;;-144.47;72.51;53436.09;5048706;28;20020;-64
2022/07/02 01:42:46;;;;;;;17.33;6.50;;;;;;;-144.47;72.83;53420.22;5048784;28;20100;-66
2022/07/02 01:45:12;;;;;;;13.50;7.00;;;;;;;-144.47;73.15;53459.94;5046853;28;20035;-67
2022/07/02 01:47:37;;;;;;;14.10;6.55;;;;;;;-144.47;73.10;53467.88;5047610;28;20041;-67
2022/07/02 01:50:03;;;;;;;18.02;6.40;;;;;;;-144.47;72.88;53475.81;5048395;28;20025;-65
2022/07/02 01:52:28;;;;;;;14.85;6.72;;;;;;;-144.47;73.00;53448.00;5047751;28;20025;-66
2022/07/02 01:54:54;;;;;;;17.55;7.53;;;;;;;-144.47;73.05;53432.13;5047564;28;20032;-65
2022/07/02 01:57:19;;;;;;;12.70;7.13;;;;;;;-144.47;73.13;53444.03;5047444;28;20039;-67
2022/07/02 01:59:44;;;;;;;13.48;6.88;;;;;;;-144.47;73.48;53477.81;5048088;28;20024;-68
2022/07/02 02:02:10;;;;;;;12.73;6.90;;;;;;;-144.47;73.40;53467.88;5048360;28;20055;-64
2022/07/02 02:04:35;;;;;;;16.60;6.72;;;;;;;-144.47;73.61;53455.97;5048587;28;20021;-67
2022/07/02 02:07:04;;;;;;;14.88;6.53;;;;;;;-144.47;73.47;53436.09;5047874;28;20096;-67
2022/07/02 02:09:30;;;;;;;16.77;6.57;;;;;;;-144.47;73.32;53453.97;5046575;28;20386;-66
2022/07/02 02:11:55;;;;;;;13.68;6.25;;;;;;;-144.47;73.42;53457.94;5046138;28;20033;-67
2022/07/02 02:14:21;;;;;;;11.10;6.70;;;;;;;-144.47;73.37;53434.09;5047996;28;20111;-67
2022/07/02 02:16:46;;;;;;;13.52;6.70;;;;;;;-144.47;73.45;53489.72;5047327;28;20113;-70
2022/07/02 02:19:11;;;;;;;12.75;6.75;;;;;;;-144.47;73.52;53455.97;5047728;28;20655;-66
2022/07/02 02:21:37;;;;;;;13.25;6.55;;;;;;;-144.47;73.62;53499.66;5047793;28;20017;-68
2022/07/02 02:24:03;;;;;;;16.23;6.43;;;;;;;-144.47;73.84;53473.84;5047586;28;20055;-65
2022/07/02 02:26:28;;;;;;;19.42;6.85;;;;;;;-144.47;74.26;53442.06;5047655;28;20032;-66
2022/07/02 02:28:54;;;;;;;21.88;7.10;;;;;;;-144.47;74.63;53483.78;5047902;28;20021;-68
2022/07/02 02:31:20;;;;;;;30.20;6.15;;;;;;;-144.47;74.58;53459.94;5047805;28;20033;-66
2022/07/02 02:33:46;;;;;;;14.02;6.68;;;;;;;-144.47;75.08;53487.75;5047172;28;20040;-68
2022/07/02 02:36:11;;;;;;;17.33;6.85;;;;;;;-144.47;75.04;53457.94;5047406;28;20047;-69
2022/07/02 02:38:37;;;;;;;22.88;6.45;;;;;;;-144.47;75.25;53469.88;5047315;28;20021;-67
2022/07/02 02:41:05;;;;;;;11.38;6.03;;;;;;;-144.47;75.30;53455.97;5047310;28;20041;-65
2022/07/02 02:43:34;;;;;;;16.80;6.75;;;;;;;-144.47;75.56;53479.81;5047626;28;20639;-65
2022/07/02 02:45:59;;;;;;;;;;;;;;;-144.47;75.79;53424.19;5040177;28;20478;-66
2022/07/02 02:48:25;;;;;;;13.75;5.78;;;;;;;-144.47;76.25;53436.09;5045814;28;19920;-68
2022/07/02 02:50:50;;;;;;;13.55;6.57;;;;;;;-144.47;76.38;53463.91;5047745;28;20035;-67
2022/07/02 02:53:16;;;;;;;15.35;6.88;;;;;;;-144.47;76.44;53452.00;5047667;28;20035;-68
2022/07/02 02:55:42;;;;;;;16.80;6.60;;;;;;;-144.47;76.67;53465.91;5047077;28;20055;-69
2022/07/02 02:58:08;;;;;;;15.00;6.63;;;;;;;-144.47;76.50;53457.94;5047260;28;20052;-68
2022/07/02 03:00:33;;;;;;;13.75;5.97;;;;;;;-144.47;76.67;53452.00;5045767;28;20125;-67
2022/07/02 03:02:58;;;;;;;13.27;5.97;;;;;;;-144.47;76.75;53430.13;5047249;28;20079;-67
2022/07/02 03:05:24;;;;;;;12.38;5.72;;;;;;;-144.47;76.78;53501.66;5047465;28;20082;-70
2022/07/02 03:07:50;;;;;;;13.15;5.65;;;;;;;-144.47;76.65;53479.81;5048575;28;20387;-69
2022/07/02 03:10:15;;;;;;;18.02;6.65;;;;;;;-144.47;76.86;53477.81;5051207;28;20033;-68
2022/07/02 03:12:44;;;;;;;22.92;7.03;;;;;;;-144.47;76.84;53453.97;5051995;28;20024;-68
2022/07/02 03:15:09;;;;;;;13.90;6.10;;;;;;;-144.47;76.90;53471.84;5048980;28;20037;-66
2022/07/02 03:17:35;;;;;;;20.40;6.60;;;;;;;-144.47;77.13;53505.63;5049838;28;20500;-68
2022/07/02 03:20:00;;;;;;;13.98;6.10;;;;;;;-144.47;77.30;53471.84;5049650;28;20174;-67
2022/07/02 03:22:25;;;;;;;14.75;7.38;;;;;;;-144.47;77.45;53481.78;5048943;28;20127;-68
2022/07/02 03:24:51;;;;;;;29.08;9.00;;;;;;;-144.47;77.31;53467.88;5050690;28;20102;-67
2022/07/02 03:27:16;;;;;;;10.38;6.38;;;;;;;-144.47;77.07;53459.94;5051179;28;20108;-69
2022/07/02 03:29:42;;;;;;;20.50;6.97;;;;;;;-144.47;77.13;53469.88;5051198;28;20017;-67
2022/07/02 03:32:07;;;;;;;20.98;8.85;;;;;;;-144.47;77.16;53493.72;5049788;28;20040;-68
2022/07/02 03:34:33;;;;;;;17.35;7.13;;;;;;;-144.47;76.87;53467.88;5051143;28;20449;-70
2022/07/02 03:36:58;;;;;;;12.30;6.82;;;;;;;-144.47;76.62;53475.81;5050813;28;20021;-65
2022/07/02 03:39:23;;;;;;;21.98;7.40;;;;;;;-144.47;76.64;53446.03;5051054;28;20397;-68
2022/07/02 03:41:49;;;;;;;13.63;7.30;;;;;;;-144.47;76.74;53481.78;5050845;28;20587;-65
2022/07/02 03:44:14;;;;;;;37.38;9.60;;;;;;;-144.47;76.88;53515.56;5050653;28;20106;-68
2022/07/02 03:46:40;;;;;;;20.95;7.38;;;;;;;-144.47;77.18;53487.75;5050354;28;20021;-65
2022/07/02 03:49:05;;;;;;;16.95;7.10;;;;;;;-144.47;76.95;53467.88;5050585;28;20057;-69
2022/07/02 03:51:30;;;;;;;18.10;7.32;;;;;;;-144.47;76.90;53507.59;5050756;28;20389;-67
2022/07/02 03:53:56;;;;;;;16.35;6.70;;;;;;;-144.47;77.03;53497.69;5050126;28;20086;-68
2022/07/02 03:56:21;;;;;;;14.00;6.68;;;;;;;-144.47;77.22;53450.00;5050026;28;20031;-66
2022/07/02 03:58:46;;;;;;;17.05;7.45;;;;;;;-144.47;77.09;53485.75;5050462;28;20028;-64
2022/07/02 04:01:12;;;;;;;18.02;6.15;;;;;;;-144.47;77.18;53459.94;5050121;28;20477;-68
2022/07/02 04:03:38;;;;;;;19.50;7.38;;;;;;;-144.47;77.26;53497.69;5048399;28;20017;-64
2022/07/02 04:06:04;;;;;;;20.33;8.18;;;;;;;-144.47;77.14;53467.88;5050053;28;20090;-65
2022/07/02 04:08:29;;;;;;;18.00;6.50;;;;;;;-144.47;77.19;53475.81;5049964;28;20029;-65
2022/07/02 04:10:54;;;;;;;12.40;6.07;;;;;;;-144.47;77.23;53483.78;5047999;28;20551;-67
2022/07/02 04:13:20;;;;;;;10.70;5.70;;;;;;;-144.47;77.22;53487.75;5048531;28;20025;-68
2022/07/02 04:15:45;;;;;;;14.20;6.88;;;;;;;-144.47;77.14;53487.75;5050020;28;20101;-68
2022/07/02 04:18:11;;;;;;;10.70;6.03;;;;;;;-144.47;76.99;53489.72;5048100;28;20036;-68
2022/07/02 04:20:36;;;;;;;12.90;5.65;;;;;;;-144.47;76.74;53453.97;5050627;28;20071;-66
2022/07/02 04:23:01;;;;;;;14.07;6.25;;;;;;;-144.47;76.48;53463.91;5050972;28;20435;-66
2022/07/02 04:25:28;;;;;;;14.60;5.90;;;;;;;-144.47;76.21;53473.84;5049954;28;20029;-67
2022/07/02 04:27:53;;;;;;;16.88;6.07;;;;;;;-144.47;76.00;53493.72;5050149;28;20036;-67
2022/07/02 04:30:19;;;;;;;13.90;6.32;;;;;;;-144.47;75.12;53461.91;5050156;28;20021;-65
2022/07/02 04:32:44;;;;;;;15.50;5.07;;;;;;;-144.47;74.63;53455.97;5049654;28;20481;-68
2022/07/02 04:35:10;;;;;;;18.27;5.28;;;;;;;-144.47;74.34;53489.72;5048514;28;20246;-68
2022/07/02 04:37:35;;;;;;;10.18;4.90;;;;;;;-144.47;73.94;53446.03;5050193;28;20032;-66
2022/07/02 04:40:00;;;;;;;11.75;5.13;;;;;;;-144.47;73.71;53479.81;5049876;28;20342;-68
2022/07/02 04:42:26;;;;;;;16.65;5.68;;;;;;;-144.47;73.36;53434.09;5049752;28;20029;-65
2022/07/02 04:44:51;;;;;;;14.93;4.72;;;;;;;-144.47;72.92;53465.91;5049867;28;20422;-69
2022/07/02 04:47:16;;;;;;;23.85;5.13;;;;;;;-144.47;72.08;53465.91;5049028;28;20393;-67
2022/07/02 04:49:42;;;;;;;16.95;4.60;;;;;;;-144.47;71.88;53491.72;5049716;28;20502;-69
2022/07/02 04:52:07;;;;;;;11.93;4.57;;;;;;;-144.47;71.75;53455.97;5049736;28;20088;-67
2022/07/02 04:54:32;;;;;;;10.73;4.72;;;;;;;-144.47;71.70;53459.94;5050002;28;20327;-70
2022/07/02 04:56:58;;;;;;;13.77;4.28;;;;;;;-144.47;71.25;53465.91;5050532;28;20021;-68
2022/07/02 04:59:23;;;;;;;10.90;5.18;;;;;;;-144.47;71.21;53450.00;5050137;28;20052;-69
2022/07/02 05:01:49;;;;;;;13.73;4.78;;;;;;;-144.47;70.29;53465.91;5049267;28;20616;-70
2022/07/02 05:04:14;;;;;;;9.63;4.20;;;;;;;-144.47;70.05;53448.00;5050182;28;20043;-67
2022/07/02 05:06:40;;;;;;;8.82;4.57;;;;;;;-144.47;69.53;53450.00;5049408;28;20021;-68
2022/07/02 05:09:05;;;;;;;9.93;4.57;;;;;;;-144.47;68.97;53450.00;5048274;28;20025;-69
2022/07/02 05:11:31;;;;;;;12.75;3.88;;;;;;;-144.47;68.36;53452.00;5049192;28;20500;-68
2022/07/02 05:13:56;;;;;;;13.10;4.35;;;;;;;-144.47;68.35;53444.03;5048556;28;20048;-66
2022/07/02 05:16:22;;;;;;;16.33;4.28;;;;;;;-144.47;68.23;53469.88;5040866;28;20071;-70
2022/07/02 05:18:47;;;;;;;15.25;4.50;;;;;;;-144.47;67.40;53434.09;5047199;28;20461;-67
2022/07/02 05:21:13;;;;;;;8.10;3.35;;;;;;;-144.47;67.65;53457.94;5046909;28;20025;-70
2022/07/02 05:23:38;;;;;;;6.50;3.63;;;;;;;-144.47;67.50;53414.25;5049425;28;20421;-70
2022/07/02 05:26:04;;;;;;;13.70;3.70;;;;;;;-144.47;67.34;53418.22;5050095;28;20379;-65
2022/07/02 05:28:29;;;;;;;24.08;4.43;;;;;;;-144.47;66.68;53432.13;5049561;28;20075;-69
2022/07/02 05:30:54;;;;;;;11.27;3.78;;;;;;;-144.47;66.32;53461.91;5048513;28;20451;-68
2022/07/02 05:33:20;;;;;;;14.82;4.63;;;;;;;-144.47;65.96;53428.16;5048991;28;20182;-69
2022/07/02 05:35:46;;;;;;;15.63;4.32;;;;;;;-144.47;65.46;53428.16;5049443;28;20339;-67
2022/07/02 05:38:11;;;;;;;8.75;3.28;;;;;;;-144.47;65.65;53457.94;5049071;28;20025;-69
2022/07/02 05:40:37;;;;;;;8.23;3.58;;;;;;;-144.47;65.51;53430.13;5049166;28;20079;-68
2022/07/02 05:43:03;;;;;;;10.25;3.85;;;;;;;-144.47;65.32;53430.13;5049196;28;20028;-66
2022/07/02 05:45:28;;;;;;;12.25;4.10;;;;;;;-144.47;64.83;53430.13;5049532;28;20033;-68
2022/07/02 05:47:54;;;;;;;12.52;3.40;;;;;;;-144.47;64.56;53448.00;5042762;28;20057;-68
2022/07/02 05:50:19;;;;;;;6.95;3.63;;;;;;;-144.47;64.55;53420.22;5041945;28;20044;-67
2022/07/02 05:52:45;;;;;;;9.55;3.78;;;;;;;-144.47;64.66;53463.91;5042685;28;20037;-68
2022/07/02 05:55:11;;;;;;;12.88;3.55;;;;;;;-144.47;64.06;53426.16;5040199;28;20016;-67
2022/07/02 05:57:36;;;;;;;11.55;3.75;;;;;;;-144.47;63.78;53420.22;5040711;28;20074;-69
2022/07/02 06:00:03;;;;;;;16.85;4.60;;;;;;;-144.47;63.44;53412.25;5044541;28;20066;-67
2022/07/02 06:02:29;;;;;;;6.90;3.40;;;;;;;-144.47;63.25;53406.31;5045467;28;20024;-67
2022/07/02 06:04:54;;;;;;;9.98;3.30;;;;;;;-144.47;63.07;53455.97;5044610;28;20377;-68
2022/07/02 06:10:05;;;;;;;20.00;3.80;;;;;;;-144.47;62.32;53436.09;5046322;28;20089;-68
2022/07/02 06:12:30;;;;;;;12.85;3.38;;;;;;;-144.47;61.99;53440.06;5040576;28;20107;-68
2022/07/02 06:14:56;;;;;;;5.38;3.38;;;;;;;-144.47;62.04;53404.31;5039723;28;20024;-67
2022/07/02 06:17:21;;;;;;;11.43;4.00;;;;;;;-144.47;62.18;53420.22;5040887;28;20044;-69
2022/07/02 06:19:48;;;;;;;10.55;3.20;;;;;;;-144.47;61.79;53422.19;5041507;28;20025;-68
2022/07/02 06:22:14;;;;;;;20.17;4.35;;;;;;;-144.47;61.29;53400.34;5039591;28;20051;-67
2022/07/02 06:24:39;;;;;;;6.57;3.50;;;;;;;-144.47;60.64;53428.16;5037798;28;20871;-67
2022/07/02 06:27:05;;;;;;;7.35;3.45;;;;;;;-144.47;60.19;53418.22;5041608;28;20048;-66
2022/07/02 06:29:31;;;;;;;6.63;3.28;;;;;;;-144.47;60.22;53376.50;5041374;28;20115;-66
2022/07/02 06:31:56;;;;;;;6.45;3.20;;;;;;;-144.47;60.29;53428.16;5042395;28;20450;-66
2022/07/02 06:34:22;;;;;;;9.77;3.50;;;;;;;-144.47;60.22;53414.25;5039067;28;20036;-67
2022/07/02 06:39:14;;;;;;;14.35;4.63;;;;;;;-144.47;59.40;53410.28;5029634;28;20426;-67
2022/07/02 06:44:23;;;;;;;10.27;3.20;;;;;;;-144.47;59.39;53368.56;5029758;28;20087;-68
2022/07/02 06:46:49;;;;;;;14.68;3.60;;;;;;;-144.47;57.91;53408.28;5029987;28;20029;-70
2022/07/02 06:49:14;;;;;;;14.20;3.83;;;;;;;-144.47;57.71;53416.22;5033797;28;20365;-70
2022/07/02 06:51:39;;;;;;;12.98;3.42;;;;;;;-144.47;57.86;53408.28;5034075;28;20025;-68
2022/07/02 06:54:05;;;;;;;10.48;3.30;;;;;;;-144.47;58.40;53398.34;5031480;28;20120;-67
2022/07/02 06:56:36;;;;;;;8.60;3.83;;;;;;;-144.47;58.48;53455.97;5027908;28;20045;-69
2022/07/02 06:59:05;;;;;;;11.98;3.65;;;;;;;-144.47;58.36;53408.28;5030227;28;20351;-68
2022/07/02 07:01:31;;;;;;;16.35;4.45;;;;;;;-144.47;58.43;53378.50;5031755;28;20540;-71
2022/07/02 07:03:56;;;;;;;13.52;3.45;;;;;;;-144.47;58.09;53380.47;5029524;28;20037;-66
2022/07/02 07:06:23;;;;;;;11.27;3.28;;;;;;;-144.47;57.63;53392.41;5031326;28;20037;-66
2022/07/02 07:08:52;;;;;;;13.35;3.30;;;;;;;-144.47;57.83;53410.28;5025803;28;20159;-69
2022/07/02 07:11:20;;;;;;;11.07;3.60;;;;;;;-144.47;57.41;53416.22;5031282;28;20072;-68
2022/07/02 07:13:45;;;;;;;9.30;3.60;;;;;;;-144.47;56.84;53394.38;5032702;28;20108;-67
2022/07/02 07:16:11;;;;;;;9.02;3.10;;;;;;;-144.47;56.88;53396.38;5008672;28;20044;-69
2022/07/02 07:18:36;;;;;;;9.52;3.55;;;;;;;-144.47;56.59;53376.50;5031627;28;20429;-68
2022/07/02 07:21:01;;;;;;;11.32;3.90;;;;;;;-144.47;56.14;53374.50;5015898;28;20538;-71
2022/07/02 07:23:27;;;;;;;8.85;3.50;;;;;;;-144.47;55.72;53372.53;5025736;28;20036;-69
2022/07/02 07:25:52;;;;;;;8.70;3.85;;;;;;;-144.47;55.70;53364.59;5028301;28;20116;-68
2022/07/02 07:28:17;;;;;;;18.65;3.72;;;;;;;-144.47;56.02;53390.41;5016532;28;20668;-66
2022/07/02 07:30:43;;;;;;;10.32;3.70;;;;;;;-144.47;55.55;53378.50;5030722;28;20028;-68
2022/07/02 07:33:09;;;;;;;10.00;3.75;;;;;;;-144.47;55.75;53394.38;5021145;28;20057;-70
2022/07/02 07:35:34;;;;;;;18.17;3.38;;;;;;;-144.47;55.67;53348.69;5030059;28;20024;-70
2022/07/02 07:38:00;;;;;;;10.23;3.72;;;;;;;-144.47;55.20;53388.41;5034810;28;20623;-67
2022/07/02 07:40:27;;;;;;;6.30;3.20;;;;;;;-144.47;55.27;53396.38;5032265;28;20366;-64
2022/07/02 07:42:52;;;;;;;12.43;3.70;;;;;;;-144.47;54.01;53388.41;5019322;28;20041;-68
2022/07/02 07:45:18;;;;;;;11.75;3.40;;;;;;;-144.47;53.88;53358.63;5026507;28;20387;-66
2022/07/02 07:47:43;;;;;;;8.43;3.15;;;;;;;-144.47;53.80;53346.72;5028451;28;20029;-70
2022/07/02 07:50:09;;;;;;;9.82;4.22;;;;;;;-144.47;53.81;53394.38;5028996;28;20022;-66
2022/07/02 07:52:35;;;;;;;13.95;3.60;;;;;;;-144.47;53.69;53380.47;5027933;28;20033;-67
2022/07/02 07:55:00;;;;;;;14.27;3.30;;;;;;;-144.47;53.51;53368.56;5030369;28;20095;-66
2022/07/02 07:57:25;;;;;;;11.35;2.97;;;;;;;-144.47;53.73;53372.53;5039860;28;20763;-66
2022/07/02 07:59:51;;;;;;;8.95;2.95;;;;;;;-144.47;52.24;53376.50;5038770;28;20049;-65
2022/07/02 08:02:17;;;;;;;9.23;2.53;;;;;;;-144.47;51.72;53380.47;5036292;28;20579;-66
2022/07/02 08:04:42;;;;;;;7.82;3.00;;;;;;;-144.47;51.15;53374.50;5039852;28;20040;-67
2022/07/02 08:07:07;;;;;;;7.75;3.10;;;;;;;-144.47;51.63;53336.78;5036438;28;20021;-67
2022/07/02 08:09:33;;;;;;;10.27;3.60;;;;;;;-144.47;51.64;53336.78;5037709;28;20549;-69
2022/07/02 08:11:58;;;;;;;11.93;3.22;;;;;;;-144.47;51.32;53348.69;5037311;28;20021;-70
2022/07/02 08:14:24;;;;;;;14.40;3.13;;;;;;;-144.47;48.81;53340.75;5035480;28;20030;-67
2022/07/02 08:16:50;;;;;;;6.82;2.53;;;;;;;-144.47;46.57;53342.72;5023747;28;20029;-67
2022/07/02 08:19:16;;;;;;;8.57;2.88;;;;;;;-144.47;47.14;53360.63;5031886;28;20029;-67
2022/07/02 08:21:42;;;;;;;7.40;2.63;;;;;;;-144.47;47.65;53400.34;5035624;28;20031;-65
2022/07/02 08:24:07;;;;;;;7.20;2.47;;;;;;;-144.47;47.29;53328.81;5035387;28;20036;-69
2022/07/02 08:26:33;;;;;;;10.45;2.60;;;;;;;-144.47;45.56;53362.59;5034257;28;20461;-67
2022/07/02 08:28:58;;;;;;;7.65;2.10;;;;;;;-144.47;44.46;53346.72;5040438;28;20057;-67
2022/07/02 08:31:24;;;;;;;8.45;2.35;;;;;;;-144.47;44.36;53344.72;5021871;28;20052;-64
2022/07/02 08:33:50;;;;;;;7.38;2.33;;;;;;;-144.47;43.64;53332.81;5039081;28;20036;-68
2022/07/02 08:36:18;;;;;;;7.43;2.30;;;;;;;-144.47;44.66;53336.78;5018827;28;20029;-70
2022/07/02 08:38:44;;;;;;;9.93;3.00;;;;;;;-144.47;43.69;53340.75;5036648;28;20045;-68
2022/07/02 08:41:12;;;;;;;7.13;1.90;;;;;;;-144.47;42.64;53324.84;5023511;28;20274;-67
2022/07/02 08:43:40;;;;;;;13.98;2.63;;;;;;;-144.47;42.77;53340.75;5035527;28;20418;-70
2022/07/02 08:46:07;;;;;;;6.93;2.60;;;;;;;-144.47;42.28;53303.00;5023037;28;20029;-69
2022/07/02 08:48:33;;;;;;;6.95;1.92;;;;;;;-144.47;42.12;53346.72;5032265;28;20067;-66
2022/07/02 08:50:58;;;;;;;11.07;2.60;;;;;;;-144.47;42.25;53324.84;5034931;28;20044;-67
2022/07/02 08:53:27;;;;;;;5.70;2.35;;;;;;;-144.47;42.59;53316.91;5031200;28;20053;-64
2022/07/02 08:55:56;;;;;;;6.95;2.50;;;;;;;-144.47;42.38;53350.69;5023574;28;20029;-67
2022/07/02 08:58:22;;;;;;;8.45;2.10;;;;;;;-144.47;42.64;53281.16;5033056;28;20030;-68
2022/07/02 09:00:48;;;;;;;6.03;2.30;;;;;;;-144.47;42.42;53316.91;5036220;28;20623;-69
2022/07/02 09:03:19;;;;;;;9.27;3.20;;;;;;;-144.47;40.10;53303.00;5034157;28;20041;-69
2022/07/02 09:05:49;;;;;;;10.60;2.03;;;;;;;-144.47;39.50;53322.88;5031477;28;20060;-68
2022/07/02 09:08:16;;;;;;;4.65;2.47;;;;;;;-144.47;39.42;53326.84;5035268;28;20036;-68
2022/07/02 09:10:42;;;;;;;9.07;2.95;;;;;;;-144.47;40.18;53306.97;5034252;28;20056;-66
2022/07/02 09:13:07;;;;;;;7.30;2.85;;;;;;;-144.47;39.74;53301.03;5030292;28;20032;-66
2022/07/02 09:15:34;;;;;;;10.77;2.75;;;;;;;-144.47;39.88;53306.97;5031746;28;20016;-72
2022/07/02 09:18:00;;;;;;;18.27;2.42;;;;;;;-144.47;39.35;53303.00;5032343;28;20025;-69
2022/07/02 09:20:25;;;;;;;13.73;2.88;;;;;;;-144.47;38.09;53320.88;5033024;28;20025;-70
2022/07/02 09:22:52;;;;;;;15.02;2.65;;;;;;;-144.47;38.38;53320.88;5028198;28;20041;-65
2022/07/02 09:25:20;;;;;;;5.90;2.10;;;;;;;-144.47;38.54;53275.19;5032678;28;20445;-66
2022/07/02 09:27:47;;;;;;;8.38;2.47;;;;;;;-144.47;38.02;53287.13;5033822;28;20024;-68
2022/07/02 09:30:16;;;;;;;7.57;2.40;;;;;;;-144.47;37.39;53259.31;5033347;28;20032;-68
2022/07/02 09:32:44;;;;;;;9.27;3.00;;;;;;;-144.47;37.76;53269.22;5029653;28;20108;-67
2022/07/02 09:35:20;;;;;;;4.35;2.10;;;;;;;-144.47;37.47;53273.22;5026237;28;20028;-67
2022/07/02 09:37:48;;;;;;;6.85;2.40;;;;;;;-144.47;36.60;53249.38;5019563;28;20112;-67
2022/07/02 09:40:14;;;;;;;7.40;2.50;;;;;;;-144.47;36.07;53291.09;5027468;28;20022;-68
2022/07/02 09:42:45;;;;;;;12.52;2.80;;;;;;;-144.47;36.15;53253.34;5029231;28;20043;-68
2022/07/02 09:45:11;;;;;;;8.50;2.42;;;;;;;-144.47;36.36;53316.91;5029948;28;20031;-65
2022/07/02 09:47:51;;;;;;;5.30;2.17;;;;;;;-144.47;36.19;53287.13;5028056;28;20033;-67
2022/07/02 09:50:18;;;;;;;7.15;2.20;;;;;;;-144.47;36.05;53251.34;5027064;28;20021;-69
2022/07/02 09:52:50;;;;;;;11.88;2.58;;;;;;;-144.47;36.03;53265.25;5035499;28;20033;-66
2022/07/02 09:55:19;;;;;;;10.57;2.97;;;;;;;-144.47;35.61;53217.59;5021115;28;20049;-68
2022/07/02 09:57:55;;;;;;;27.30;2.75;;;;;;;-144.47;35.58;53299.03;5019576;28;20014;-66
2022/07/02 10:00:22;;;;;;;9.30;2.60;;;;;;;-144.47;35.49;53279.16;5019352;28;20032;-68
2022/07/02 10:02:52;;;;;;;7.70;2.65;;;;;;;-144.47;35.41;53265.25;5021039;28;20518;-67
2022/07/02 10:05:29;;;;;;;7.55;2.45;;;;;;;-144.47;35.51;53289.09;5027153;28;20479;-70
2022/07/02 10:07:56;;;;;;;6.32;2.53;;;;;;;-144.47;34.62;53285.13;5014676;28;20026;-68
2022/07/02 10:10:35;;;;;;;8.85;2.53;;;;;;;-144.47;34.22;53227.53;5003272;28;20232;-66
2022/07/02 10:13:01;;;;;;;10.63;2.60;;;;;;;-144.47;34.41;53261.28;5022466;28;20030;-66
2022/07/02 10:15:30;;;;;;;9.75;2.55;;;;;;;-144.47;34.82;53265.25;5021643;28;20036;-67
2022/07/02 10:17:56;;;;;;;8.25;2.95;;;;;;;-144.47;34.99;53273.22;5039976;28;20085;-71
2022/07/02 10:20:23;;;;;;;10.40;3.05;;;;;;;-144.47;34.69;53263.28;5013040;28;20179;-69
2022/07/02 10:22:49;;;;;;;5.63;2.50;;;;;;;-144.47;34.74;53251.34;5019381;28;20101;-68
2022/07/02 10:25:19;;;;;;;8.82;3.00;;;;;;;-144.47;34.57;53227.53;5015505;28;20026;-66
2022/07/02 10:27:47;;;;;;;9.52;3.22;;;;;;;-144.47;34.19;53231.50;5029756;28;20112;-70
2022/07/02 10:30:20;;;;;;;12.80;2.50;;;;;;;-144.47;33.93;53251.34;5010165;28;20034;-66
2022/07/02 10:32:54;;;;;;;10.43;3.03;;;;;;;-144.47;33.65;53227.53;5011062;28;20372;-69
2022/07/02 10:35:22;;;;;;;15.68;4.28;;;;;;;-144.47;33.60;53265.25;5009052;28;20037;-68
2022/07/02 10:37:48;;;;;;;8.80;2.38;;;;;;;-144.47;33.15;53241.44;5024489;28;20037;-65
2022/07/02 10:40:18;;;;;;;9.20;2.75;;;;;;;-144.47;33.14;53293.06;5035501;28;20033;-67
2022/07/02 10:42:49;;;;;;;12.90;3.17;;;;;;;-144.47;33.20;53265.25;5026000;28;20025;-68
2022/07/02 10:45:16;;;;;;;6.65;2.15;;;;;;;-144.47;33.13;53275.19;5026031;28;20227;-68
2022/07/02 10:48:12;;;;;;;9.80;2.20;;;;;;;-144.47;33.45;53267.25;5022239;28;20022;-69
2022/07/02 10:50:41;;;;;;;6.63;2.42;;;;;;;-144.47;32.90;53245.41;5014386;28;20502;-66
2022/07/02 10:53:14;;;;;;;10.52;2.38;;;;;;;-144.47;32.81;53253.34;5010876;28;20026;-66
2022/07/02 10:55:41;;;;;;;10.70;2.20;;;;;;;-144.47;32.71;53229.50;5015445;28;20049;-66
2022/07/02 10:58:08;;;;;;;9.95;2.90;;;;;;;-144.47;32.95;53243.41;5016799;28;20029;-70
2022/07/02 11:00:34;;;;;;;13.68;3.80;;;;;;;-144.47;32.84;53235.47;5012123;28;20487;-68
2022/07/02 11:03:11;;;;;;;9.15;2.33;;;;;;;-144.47;33.03;53253.34;5010824;28;20084;-66
2022/07/02 11:05:56;;;;;;;11.35;2.63;;;;;;;-144.47;32.98;53225.53;5031612;28;20048;-69
2022/07/02 11:08:46;;;;;;;11.68;3.40;;;;;;;-144.47;32.95;53231.50;5017831;28;20503;-67
2022/07/02 11:11:40;;;;;;;11.15;2.55;;;;;;;-144.47;32.56;53253.34;5022124;28;20049;-70
2022/07/02 11:14:13;;;;;;;14.18;3.00;;;;;;;-144.47;32.50;53225.53;5035978;28;20026;-67
2022/07/02 11:16:43;;;;;;;9.57;2.30;;;;;;;-144.47;32.19;53233.47;5018831;28;20445;-68
2022/07/02 11:19:29;;;;;;;9.43;2.20;;;;;;;-144.47;32.23;53207.66;5027269;28;20025;-67
2022/07/02 11:21:58;;;;;;;5.75;2.25;;;;;;;-144.47;32.50;53229.50;5018783;28;20025;-66